Terminal Aerodrome Forecast
Issued by NWS Charleston, WV

Current Version | Previous Version | Text Only | Print | Product List | Glossary Off
Versions: 1 2 3 4 5 6 7 8 9 10 11 12 13 14 15 16 17 18 19 20 21 22 23 24

094
FTUS41 KRLX 160258 AAA
TAFCRW
TAF AMD
KCRW 160258Z 1603/1624 24003KT P6SM OVC050
     FM160500 22006KT P6SM OVC045
     FM160600 24005KT 5SM -SHSN OVC024
     FM160900 25004KT 3SM -SHSN OVC014
     FM161300 27004KT 2SM -SHSN OVC011
     FM161400 27004KT 1 1/2SM -SHSN OVC010
     FM162000 28005KT P6SM OVC008=

USA.gov is the U.S. government's official web portal to all federal, state and local government web resources and services.